Webcam Flughafen St.Gallen-Altenrhein

Live-Bilder und Zeitraffer LSZR / ACH.

 

Live aus Altenrhein
LIVE
LSZR 191420Z AUTO 28003KT 240V340 9999 BKN080 12/M00 Q1017
Zeitraffer heute
2021-04-19 00:14:14
LSZR 182150Z AUTO 20002KT 9999 OVC060 06/04 Q1020